createdAt,value
2022-08-21T00:01:34.155Z,15.35
2022-08-21T00:04:06.766Z,15.24
2022-08-21T00:06:33.247Z,15.11
2022-08-21T00:09:02.991Z,15.08
2022-08-21T00:11:32.927Z,15.04
2022-08-21T00:13:59.915Z,15.02
2022-08-21T00:16:26.282Z,15.01
2022-08-21T00:18:52.636Z,14.97
2022-08-21T00:21:20.347Z,14.88
2022-08-21T00:23:46.708Z,14.81
2022-08-21T00:26:13.128Z,14.79
2022-08-21T00:28:39.469Z,14.76
2022-08-21T00:31:06.104Z,14.74
2022-08-21T00:33:32.602Z,14.66
2022-08-21T00:35:59.079Z,14.63
2022-08-21T00:38:27.115Z,14.56
2022-08-21T00:40:56.206Z,14.53
2022-08-21T00:43:24.561Z,14.48
2022-08-21T00:45:51.358Z,14.42
2022-08-21T00:48:18.929Z,14.38
2022-08-21T00:50:48.013Z,14.38
2022-08-21T00:53:15.722Z,14.39
2022-08-21T00:55:44.179Z,14.39
2022-08-21T00:58:11.992Z,14.40
2022-08-21T01:00:39.854Z,14.39
2022-08-21T01:03:07.455Z,14.40
2022-08-21T01:05:35.704Z,14.40
2022-08-21T01:08:02.210Z,14.40
2022-08-21T01:10:28.852Z,14.44
2022-08-21T01:12:59.137Z,14.43
2022-08-21T01:15:28.336Z,14.42
2022-08-21T01:17:54.703Z,14.42
2022-08-21T01:20:21.040Z,14.42
2022-08-21T01:22:49.127Z,14.41
2022-08-21T01:25:16.699Z,14.42
2022-08-21T01:27:43.123Z,14.42
2022-08-21T01:30:12.343Z,14.42
2022-08-21T01:32:38.691Z,14.44
2022-08-21T01:35:06.692Z,14.43
2022-08-21T01:37:33.116Z,14.44
2022-08-21T01:40:00.938Z,14.42
2022-08-21T01:42:27.397Z,14.40
2022-08-21T01:44:54.710Z,14.36
2022-08-21T01:47:23.312Z,14.34
2022-08-21T01:49:50.159Z,14.33
2022-08-21T01:52:16.931Z,14.28
2022-08-21T01:54:43.709Z,14.27
2022-08-21T01:57:12.443Z,14.26
2022-08-21T01:59:38.762Z,14.23
2022-08-21T02:02:05.190Z,14.22
2022-08-21T02:04:31.545Z,14.23
2022-08-21T02:06:57.979Z,14.23
2022-08-21T02:09:24.572Z,14.21
2022-08-21T02:11:51.240Z,14.22
2022-08-21T02:14:28.622Z,14.20
2022-08-21T02:17:05.399Z,14.20
2022-08-21T02:19:40.530Z,14.19
2022-08-21T02:22:07.363Z,14.19
2022-08-21T02:24:34.065Z,14.17
2022-08-21T02:27:00.424Z,14.15
2022-08-21T02:29:28.119Z,14.11
2022-08-21T02:31:54.519Z,14.09
2022-08-21T02:34:20.854Z,14.05
2022-08-21T02:36:47.204Z,14.02
2022-08-21T02:39:27.377Z,13.97
2022-08-21T02:41:54.235Z,13.93
2022-08-21T02:44:20.567Z,13.92
2022-08-21T02:46:48.263Z,13.89
2022-08-21T02:49:14.795Z,13.85
2022-08-21T02:51:41.354Z,13.83
2022-08-21T02:54:07.703Z,13.81
2022-08-21T02:56:34.033Z,13.80
2022-08-21T02:59:00.371Z,13.78
2022-08-21T03:01:26.716Z,13.77
2022-08-21T03:03:54.479Z,13.74
2022-08-21T03:06:21.852Z,13.70
2022-08-21T03:08:48.671Z,13.67
2022-08-21T03:11:15.361Z,13.63
2022-08-21T03:13:42.218Z,13.62
2022-08-21T03:16:09.877Z,13.60
2022-08-21T03:18:36.834Z,13.58
2022-08-21T03:21:05.739Z,13.54
2022-08-21T03:23:32.713Z,13.51
2022-08-21T03:25:59.297Z,13.47
2022-08-21T03:28:25.681Z,13.45
2022-08-21T03:30:52.380Z,13.45
2022-08-21T03:33:20.673Z,13.39
2022-08-21T03:35:53.386Z,13.29
2022-08-21T03:38:25.866Z,13.23
2022-08-21T03:40:53.307Z,13.15
2022-08-21T03:43:19.710Z,13.08
2022-08-21T03:45:46.058Z,13.00
2022-08-21T03:48:13.266Z,12.90
2022-08-21T03:50:41.475Z,12.83
2022-08-21T03:53:07.972Z,12.76
2022-08-21T03:55:44.234Z,12.73
2022-08-21T03:58:16.644Z,12.73
2022-08-21T04:00:45.946Z,12.73
2022-08-21T04:03:12.353Z,12.73
2022-08-21T04:05:38.711Z,12.79
2022-08-21T04:08:06.778Z,12.81
2022-08-21T04:10:34.163Z,12.82
2022-08-21T04:13:03.749Z,12.87
2022-08-21T04:15:30.208Z,12.90
2022-08-21T04:17:56.700Z,12.94
2022-08-21T04:20:23.302Z,12.94
2022-08-21T04:22:50.495Z,12.92
2022-08-21T04:25:16.940Z,12.92
2022-08-21T04:27:43.521Z,12.90
2022-08-21T04:30:12.694Z,12.88
2022-08-21T04:32:39.593Z,12.86
2022-08-21T04:35:07.330Z,12.85
2022-08-21T04:37:33.680Z,12.84
2022-08-21T04:40:00.091Z,12.82
2022-08-21T04:42:27.098Z,12.81
2022-08-21T04:44:53.468Z,12.79
2022-08-21T04:47:21.410Z,12.80
2022-08-21T04:49:48.085Z,12.81
2022-08-21T04:52:16.979Z,12.81
2022-08-21T04:54:44.913Z,12.86
2022-08-21T04:57:11.303Z,12.90
2022-08-21T04:59:39.066Z,12.94
2022-08-21T05:02:06.104Z,12.99
2022-08-21T05:04:35.205Z,13.07
2022-08-21T05:07:04.652Z,13.09
2022-08-21T05:09:31.123Z,13.13
2022-08-21T05:11:57.565Z,13.19
2022-08-21T05:14:24.006Z,13.23
2022-08-21T05:16:50.381Z,13.28
2022-08-21T05:19:16.722Z,13.33
2022-08-21T05:21:45.343Z,13.35
2022-08-21T05:24:12.127Z,13.38
2022-08-21T05:26:45.391Z,13.43
2022-08-21T05:29:13.217Z,13.46
2022-08-21T05:31:39.750Z,13.49
2022-08-21T05:34:06.126Z,13.54
2022-08-21T05:36:32.702Z,13.62
2022-08-21T05:39:00.383Z,13.69
2022-08-21T05:41:26.748Z,13.75
2022-08-21T05:43:53.070Z,13.81
2022-08-21T05:46:19.459Z,13.87
2022-08-21T05:48:46.116Z,13.94
2022-08-21T05:51:14.575Z,14.01
2022-08-21T05:53:41.433Z,14.06
2022-08-21T05:56:09.402Z,14.08
2022-08-21T05:58:36.280Z,14.13
2022-08-21T06:01:03.540Z,14.18
2022-08-21T06:03:31.123Z,14.27
2022-08-21T06:05:57.783Z,14.35
2022-08-21T06:08:24.336Z,14.42
2022-08-21T06:10:51.634Z,14.48
2022-08-21T06:13:19.703Z,14.54
2022-08-21T06:15:46.300Z,14.62
2022-08-21T06:18:12.697Z,14.67
2022-08-21T06:20:39.246Z,14.72
2022-08-21T06:23:05.811Z,14.80
2022-08-21T06:25:32.187Z,14.85
2022-08-21T06:28:01.368Z,14.92
2022-08-21T06:30:29.023Z,15.00
2022-08-21T06:32:55.407Z,15.07
2022-08-21T06:35:21.840Z,15.14
2022-08-21T06:37:48.144Z,15.22
2022-08-21T06:40:14.495Z,15.32
2022-08-21T06:42:41.352Z,15.39
2022-08-21T06:45:09.574Z,15.47
2022-08-21T06:47:37.234Z,15.54
2022-08-21T06:50:03.840Z,15.59
2022-08-21T06:52:30.171Z,15.69
2022-08-21T06:54:56.509Z,15.78
2022-08-21T06:57:22.847Z,15.87
2022-08-21T06:59:49.157Z,15.96
2022-08-21T07:02:15.497Z,16.06
2022-08-21T07:04:43.146Z,16.14
2022-08-21T07:07:09.508Z,16.23
2022-08-21T07:09:35.863Z,16.31
2022-08-21T07:12:02.939Z,16.40
2022-08-21T07:14:29.241Z,16.51
2022-08-21T07:16:55.597Z,16.58
2022-08-21T07:19:22.112Z,16.70
2022-08-21T07:21:49.795Z,16.80
2022-08-21T07:24:16.159Z,16.90
2022-08-21T07:26:42.507Z,17.01
2022-08-21T07:29:09.082Z,17.10
2022-08-21T07:31:35.415Z,17.24
2022-08-21T07:34:01.722Z,17.34
2022-08-21T07:36:28.034Z,17.46
2022-08-21T07:38:55.710Z,17.58
2022-08-21T07:41:23.106Z,17.69
2022-08-21T07:43:49.675Z,17.72
2022-08-21T07:46:19.175Z,17.76
2022-08-21T07:48:45.506Z,17.81
2022-08-21T07:51:13.237Z,17.84
2022-08-21T07:53:39.999Z,17.86
2022-08-21T07:56:08.542Z,17.81
2022-08-21T07:58:35.081Z,17.79
2022-08-21T08:01:01.497Z,17.81
2022-08-21T08:03:29.099Z,17.89
2022-08-21T08:05:55.840Z,17.97
2022-08-21T08:08:22.173Z,18.04
2022-08-21T08:10:48.522Z,18.18
2022-08-21T08:13:16.321Z,18.31
2022-08-21T08:15:42.846Z,18.38
2022-08-21T08:18:09.267Z,18.47
2022-08-21T08:20:35.558Z,18.53
2022-08-21T08:23:02.090Z,18.55
2022-08-21T08:25:31.815Z,18.61
2022-08-21T08:28:03.731Z,18.69
2022-08-21T08:30:44.095Z,18.79
2022-08-21T08:33:10.426Z,18.84
2022-08-21T08:35:36.758Z,18.91
2022-08-21T08:38:05.496Z,18.92
2022-08-21T08:40:38.567Z,18.97
2022-08-21T08:43:09.306Z,18.99
2022-08-21T08:45:38.303Z,19.10
2022-08-21T08:48:14.162Z,19.19
2022-08-21T08:50:42.083Z,19.30
2022-08-21T08:53:11.735Z,19.38
2022-08-21T08:55:39.550Z,19.47
2022-08-21T08:58:06.010Z,19.59
2022-08-21T09:00:32.482Z,19.69
2022-08-21T09:03:00.456Z,19.83
2022-08-21T09:05:29.234Z,19.98
2022-08-21T09:08:03.191Z,20.09
2022-08-21T09:10:35.173Z,20.13
2022-08-21T09:13:08.574Z,20.06
2022-08-21T09:15:44.406Z,19.97
2022-08-21T09:18:21.710Z,19.93
2022-08-21T09:21:03.375Z,20.10
2022-08-21T09:23:34.811Z,20.22
2022-08-21T09:26:06.047Z,20.24
2022-08-21T09:28:32.954Z,20.28
2022-08-21T09:30:59.301Z,20.33
2022-08-21T09:33:25.685Z,20.34
2022-08-21T09:35:54.563Z,20.45
2022-08-21T09:38:26.757Z,20.54
2022-08-21T09:40:56.986Z,20.63
2022-08-21T09:43:24.234Z,20.66
2022-08-21T09:46:01.549Z,20.65
2022-08-21T09:48:32.615Z,20.60
2022-08-21T09:51:08.586Z,20.58
2022-08-21T09:53:36.033Z,20.77
2022-08-21T09:56:04.279Z,20.95
2022-08-21T09:58:31.862Z,21.08
2022-08-21T10:00:59.029Z,21.24
2022-08-21T10:03:25.459Z,21.39
2022-08-21T10:05:57.742Z,21.51
2022-08-21T10:08:27.174Z,21.64
2022-08-21T10:10:56.648Z,21.82
2022-08-21T10:13:28.527Z,21.93
2022-08-21T10:16:05.845Z,22.01
2022-08-21T10:18:35.642Z,22.07
2022-08-21T10:21:03.442Z,22.14
2022-08-21T10:23:37.950Z,22.30
2022-08-21T10:26:13.847Z,22.47
2022-08-21T10:28:45.015Z,22.65
2022-08-21T10:31:15.984Z,22.75
2022-08-21T10:33:45.232Z,22.69
2022-08-21T10:36:14.775Z,22.43
2022-08-21T10:39:12.173Z,22.29
2022-08-21T10:41:48.410Z,22.18
2022-08-21T10:44:23.908Z,22.11
2022-08-21T10:46:53.123Z,22.21
2022-08-21T10:49:23.232Z,22.25
2022-08-21T10:51:55.200Z,22.37
2022-08-21T10:54:28.556Z,22.53
2022-08-21T10:56:57.124Z,22.56
2022-08-21T10:59:29.267Z,22.63
2022-08-21T11:01:59.586Z,22.68
2022-08-21T11:04:29.930Z,22.73
2022-08-21T11:07:19.707Z,22.96
2022-08-21T11:09:49.179Z,23.08
2022-08-21T11:12:21.626Z,23.12
2022-08-21T11:14:55.046Z,23.11
2022-08-21T11:17:31.097Z,23.09
2022-08-21T11:20:00.423Z,23.16
2022-08-21T11:22:30.030Z,23.10
2022-08-21T11:25:01.403Z,23.09
2022-08-21T11:27:31.864Z,23.10
2022-08-21T11:29:59.295Z,23.22
2022-08-21T11:32:40.287Z,23.23
2022-08-21T11:35:12.298Z,23.35
2022-08-21T11:37:45.430Z,23.35
2022-08-21T11:40:19.910Z,23.33
2022-08-21T11:42:51.185Z,23.13
2022-08-21T11:45:22.494Z,23.23
2022-08-21T11:47:57.247Z,23.43
2022-08-21T11:50:34.136Z,23.71
2022-08-21T11:53:05.997Z,23.88
2022-08-21T11:55:36.509Z,23.87
2022-08-21T11:58:05.890Z,23.92
2022-08-21T12:00:34.261Z,23.86
2022-08-21T12:03:08.122Z,23.66
2022-08-21T12:05:37.205Z,23.43
2022-08-21T12:08:06.132Z,23.35
2022-08-21T12:10:35.156Z,23.43
2022-08-21T12:13:07.223Z,23.55
2022-08-21T12:15:33.535Z,23.66
2022-08-21T12:18:00.737Z,23.79
2022-08-21T12:20:38.711Z,24.02
2022-08-21T12:23:07.287Z,24.25
2022-08-21T12:25:42.780Z,24.50
2022-08-21T12:28:10.275Z,24.44
2022-08-21T12:30:38.755Z,24.36
2022-08-21T12:33:06.439Z,24.18
2022-08-21T12:35:33.707Z,24.12
2022-08-21T12:38:01.729Z,23.93
2022-08-21T12:40:30.856Z,23.82
2022-08-21T12:43:00.269Z,23.75
2022-08-21T12:45:29.128Z,23.66
2022-08-21T12:47:57.871Z,23.54
2022-08-21T12:50:27.226Z,23.50
2022-08-21T12:52:58.046Z,23.42
2022-08-21T12:55:28.083Z,23.51
2022-08-21T12:57:54.448Z,23.65
2022-08-21T13:00:23.740Z,23.70
2022-08-21T13:02:51.208Z,23.62
2022-08-21T13:05:24.888Z,23.57
2022-08-21T13:07:51.357Z,23.65
2022-08-21T13:10:20.109Z,23.80
2022-08-21T13:12:47.127Z,24.03
2022-08-21T13:15:14.386Z,24.23
2022-08-21T13:17:46.884Z,24.43
2022-08-21T13:20:19.951Z,24.54
2022-08-21T13:22:46.292Z,24.59
2022-08-21T13:25:13.344Z,24.56
2022-08-21T13:27:39.986Z,24.28
2022-08-21T13:30:08.505Z,24.03
2022-08-21T13:32:36.308Z,23.81
2022-08-21T13:35:10.131Z,23.77
2022-08-21T13:37:36.598Z,23.79
2022-08-21T13:40:03.328Z,23.69
2022-08-21T13:42:29.807Z,23.47
2022-08-21T13:44:56.131Z,23.46
2022-08-21T13:47:22.534Z,23.65
2022-08-21T13:49:51.687Z,23.82
2022-08-21T13:52:23.203Z,23.86
2022-08-21T13:54:54.335Z,24.05
2022-08-21T13:57:25.336Z,24.06
2022-08-21T13:59:51.844Z,24.07
2022-08-21T14:02:20.886Z,24.04
2022-08-21T14:04:53.262Z,23.91
2022-08-21T14:07:25.366Z,23.78
2022-08-21T14:09:51.712Z,23.76
2022-08-21T14:12:25.567Z,23.85
2022-08-21T14:14:52.467Z,24.13
2022-08-21T14:17:29.167Z,24.24
2022-08-21T14:20:00.681Z,24.29
2022-08-21T14:22:33.758Z,24.37
2022-08-21T14:25:01.279Z,24.18
2022-08-21T14:27:30.114Z,24.08
2022-08-21T14:29:59.131Z,24.11
2022-08-21T14:32:27.811Z,24.15
2022-08-21T14:34:54.628Z,24.20
2022-08-21T14:37:21.523Z,24.24
2022-08-21T14:39:49.340Z,24.30
2022-08-21T14:42:15.706Z,24.37
2022-08-21T14:44:42.015Z,24.45
2022-08-21T14:47:08.752Z,24.48
2022-08-21T14:49:35.078Z,24.49
2022-08-21T14:52:01.543Z,24.52
2022-08-21T14:54:31.004Z,24.73
2022-08-21T14:57:01.399Z,24.77
2022-08-21T14:59:27.762Z,24.71
2022-08-21T15:01:54.132Z,24.58
2022-08-21T15:04:20.575Z,24.65
2022-08-21T15:06:46.896Z,24.57
2022-08-21T15:09:13.238Z,24.50
2022-08-21T15:11:42.574Z,24.47
2022-08-21T15:14:13.996Z,24.40
2022-08-21T15:16:40.323Z,24.37
2022-08-21T15:19:06.640Z,24.36
2022-08-21T15:21:32.934Z,24.37
2022-08-21T15:23:59.254Z,24.38
2022-08-21T15:26:25.623Z,24.48
2022-08-21T15:28:52.203Z,24.66
2022-08-21T15:31:19.877Z,24.65
2022-08-21T15:33:46.219Z,24.68
2022-08-21T15:36:12.551Z,24.61
2022-08-21T15:38:38.877Z,24.42
2022-08-21T15:41:05.596Z,24.41
2022-08-21T15:43:36.032Z,24.38
2022-08-21T15:46:02.392Z,24.39
2022-08-21T15:48:30.050Z,24.37
2022-08-21T15:50:56.382Z,24.37
2022-08-21T15:53:22.773Z,24.50
2022-08-21T15:55:49.134Z,24.54
2022-08-21T15:58:16.404Z,24.41
2022-08-21T16:00:44.044Z,24.36
2022-08-21T16:03:11.904Z,24.47
2022-08-21T16:05:39.538Z,24.41
2022-08-21T16:08:05.857Z,24.34
2022-08-21T16:10:32.322Z,24.20
2022-08-21T16:13:01.619Z,24.28
2022-08-21T16:15:28.063Z,24.18
2022-08-21T16:17:54.698Z,24.22
2022-08-21T16:20:23.075Z,24.36
2022-08-21T16:22:51.048Z,24.42
2022-08-21T16:25:17.747Z,24.48
2022-08-21T16:27:45.971Z,24.51
2022-08-21T16:30:13.073Z,24.53
2022-08-21T16:32:39.440Z,24.41
2022-08-21T16:35:05.956Z,24.36
2022-08-21T16:37:32.284Z,24.35
2022-08-21T16:40:00.024Z,24.26
2022-08-21T16:42:26.774Z,24.12
2022-08-21T16:44:53.935Z,24.13
2022-08-21T16:47:26.345Z,24.18
2022-08-21T16:49:54.633Z,23.97
2022-08-21T16:52:20.968Z,24.01
2022-08-21T16:54:47.276Z,24.04
2022-08-21T16:57:15.281Z,23.74
2022-08-21T16:59:41.842Z,23.58
2022-08-21T17:02:16.105Z,23.48
2022-08-21T17:04:42.411Z,23.61
2022-08-21T17:07:08.737Z,23.66
2022-08-21T17:09:35.071Z,23.45
2022-08-21T17:12:01.405Z,23.29
2022-08-21T17:14:29.125Z,23.16
2022-08-21T17:16:56.040Z,23.23
2022-08-21T17:19:22.607Z,22.89
2022-08-21T17:21:48.943Z,22.83
2022-08-21T17:24:15.409Z,22.76
2022-08-21T17:26:41.910Z,22.67
2022-08-21T17:29:08.239Z,22.62
2022-08-21T17:31:36.290Z,22.52
2022-08-21T17:34:03.031Z,22.42
2022-08-21T17:36:29.814Z,22.43
2022-08-21T17:38:57.031Z,22.37
2022-08-21T17:41:23.889Z,22.26
2022-08-21T17:43:50.758Z,22.21
2022-08-21T17:46:19.617Z,22.15
2022-08-21T17:48:47.594Z,22.16
2022-08-21T17:51:14.066Z,22.13
2022-08-21T17:53:40.383Z,22.11
2022-08-21T17:56:07.438Z,22.12
2022-08-21T17:58:33.824Z,22.11
2022-08-21T18:01:02.149Z,22.05
2022-08-21T18:03:28.494Z,21.98
2022-08-21T18:05:59.573Z,21.98
2022-08-21T18:08:26.231Z,21.91
2022-08-21T18:10:52.933Z,21.83
2022-08-21T18:13:22.119Z,21.78
2022-08-21T18:15:50.024Z,21.77
2022-08-21T18:18:16.353Z,21.76
2022-08-21T18:20:42.707Z,21.69
2022-08-21T18:23:10.391Z,21.65
2022-08-21T18:25:37.036Z,21.59
2022-08-21T18:28:05.768Z,21.57
2022-08-21T18:30:32.618Z,21.50
2022-08-21T18:32:59.076Z,21.48
2022-08-21T18:35:25.620Z,21.42
2022-08-21T18:37:51.986Z,21.40
2022-08-21T18:40:19.882Z,21.38
2022-08-21T18:42:58.491Z,21.35
2022-08-21T18:45:25.094Z,21.44
2022-08-21T18:47:52.913Z,21.36
2022-08-21T18:50:21.071Z,21.36
2022-08-21T18:52:52.852Z,21.16
2022-08-21T18:55:22.427Z,21.14
2022-08-21T18:57:48.784Z,21.16
2022-08-21T19:00:16.603Z,21.12
2022-08-21T19:02:44.163Z,21.04
2022-08-21T19:05:11.590Z,20.98
2022-08-21T19:07:38.282Z,20.84
2022-08-21T19:10:24.611Z,20.86
2022-08-21T19:12:53.081Z,20.84
2022-08-21T19:15:21.091Z,20.78
2022-08-21T19:17:51.334Z,20.63
2022-08-21T19:23:06.147Z,20.56
2022-08-21T19:25:34.631Z,20.47
2022-08-21T19:28:10.913Z,20.38
2022-08-21T19:30:38.254Z,20.29
2022-08-21T19:33:05.555Z,20.24
2022-08-21T19:35:32.507Z,20.23
2022-08-21T19:37:58.843Z,20.19
2022-08-21T19:40:26.263Z,20.16
2022-08-21T19:42:52.670Z,20.14
2022-08-21T19:45:21.849Z,20.09
2022-08-21T19:47:52.843Z,20.09
2022-08-21T19:50:21.339Z,20.07
2022-08-21T19:52:55.665Z,20.04
2022-08-21T19:55:23.242Z,20.02
2022-08-21T19:57:49.902Z,20.02
2022-08-21T20:00:17.134Z,20.00
2022-08-21T20:02:48.150Z,19.99
2022-08-21T20:05:14.777Z,19.98
2022-08-21T20:07:41.111Z,19.95
2022-08-21T20:10:07.647Z,19.91
2022-08-21T20:12:36.948Z,19.89
2022-08-21T20:15:04.204Z,19.86
2022-08-21T20:17:34.168Z,19.86
2022-08-21T20:20:01.814Z,19.84
2022-08-21T20:22:28.767Z,19.80
2022-08-21T20:24:55.747Z,19.74
2022-08-21T20:27:23.498Z,19.70
2022-08-21T20:29:49.974Z,19.67
2022-08-21T20:32:16.487Z,19.65
2022-08-21T20:34:45.066Z,19.62
2022-08-21T20:43:03.471Z,19.49
2022-08-21T20:45:32.011Z,19.45
2022-08-21T20:48:01.238Z,19.38
2022-08-21T20:50:29.898Z,19.34
2022-08-21T20:53:01.939Z,19.28
2022-08-21T20:55:29.551Z,19.21
2022-08-21T20:58:00.238Z,19.16
2022-08-21T21:00:27.557Z,19.08
2022-08-21T21:02:58.828Z,19.01
2022-08-21T21:05:28.163Z,18.95
2022-08-21T21:08:00.299Z,18.90
2022-08-21T21:10:29.724Z,18.87
2022-08-21T21:12:59.946Z,18.80
2022-08-21T21:15:29.290Z,18.73
2022-08-21T21:18:01.096Z,18.69
2022-08-21T21:20:31.755Z,18.63
2022-08-21T21:23:05.785Z,18.54
2022-08-21T21:25:40.517Z,18.48
2022-08-21T21:28:08.500Z,18.43
2022-08-21T21:30:41.805Z,18.39
2022-08-21T21:33:13.287Z,18.37
2022-08-21T21:35:49.111Z,18.35
2022-08-21T21:38:21.726Z,18.34
2022-08-21T21:40:53.336Z,18.30
2022-08-21T21:43:26.732Z,18.29
2022-08-21T21:46:06.040Z,18.23
2022-08-21T21:48:37.871Z,18.19
2022-08-21T21:51:11.981Z,18.15
2022-08-21T21:53:51.495Z,18.10
2022-08-21T21:56:23.330Z,18.07
2022-08-21T21:59:08.225Z,18.04
2022-08-21T22:01:37.604Z,17.99
2022-08-21T22:04:11.419Z,17.96
2022-08-21T22:06:48.575Z,17.92
2022-08-21T22:09:24.059Z,17.85
2022-08-21T22:11:57.815Z,17.78
2022-08-21T22:14:29.742Z,17.78
2022-08-21T22:16:56.841Z,17.78
2022-08-21T22:19:25.597Z,17.76
2022-08-21T22:21:53.679Z,17.74
2022-08-21T22:24:24.721Z,17.71
2022-08-21T22:26:57.971Z,17.70
2022-08-21T22:29:41.603Z,17.69
2022-08-21T22:32:09.099Z,17.71
2022-08-21T22:34:35.867Z,17.70
2022-08-21T22:37:03.331Z,17.65
2022-08-21T22:39:38.507Z,17.62
2022-08-21T22:42:07.515Z,17.61
2022-08-21T22:44:47.016Z,17.57
2022-08-21T22:47:18.703Z,17.57
2022-08-21T22:49:47.955Z,17.52
2022-08-21T22:52:20.238Z,17.51
2022-08-21T22:54:51.670Z,17.52
2022-08-21T22:57:24.758Z,17.53
2022-08-21T22:59:53.613Z,17.55
2022-08-21T23:02:33.055Z,17.56
2022-08-21T23:05:00.884Z,17.56
2022-08-21T23:10:26.154Z,17.54
2022-08-21T23:12:54.365Z,17.51
2022-08-21T23:15:21.400Z,17.48
2022-08-21T23:17:53.035Z,17.44
2022-08-21T23:20:23.171Z,17.42
2022-08-21T23:22:53.231Z,17.41
2022-08-21T23:25:33.020Z,17.40
2022-08-21T23:28:04.016Z,17.44
2022-08-21T23:30:36.767Z,17.47
2022-08-21T23:33:09.926Z,17.48
2022-08-21T23:35:42.297Z,17.50
2022-08-21T23:38:14.242Z,17.52
2022-08-21T23:43:33.731Z,17.48
2022-08-21T23:46:06.207Z,17.46
2022-08-21T23:48:42.310Z,17.39
2022-08-21T23:51:10.970Z,17.29
2022-08-21T23:53:44.261Z,17.27
2022-08-21T23:56:22.631Z,17.22
2022-08-21T23:58:55.285Z,17.21
